Bridgeport Valley, California Weather observations

Data are for 10 minute period ending at time listed.
 Day   Time   Solar   Ave.   Ave.  Ave.  Vector  Max.   Baro.   Total    
  of    of     Rad.   Air    Rel.  Wind   Wind   Wind  Press.  Precip.   
Year   Day            Temp.  Hum.  Speed  Dir.   Gust                    
2016   (PST)  Kw/m2    F      %     mph   deg.    mph    mb.     in.     
-------------------------------------------------------------------------
 146   10:30   1.01   51.5    58    1.9   195     5.6   802.4    0.00 
 146   10:40   1.05   53.0    53    1.3   293     4.0   802.4    0.00 
 146   10:50   1.11   53.5    52    2.8   359     7.0   802.4    0.00 
 146   11:00   1.15   52.6    49    3.3    25     6.1   802.3    0.00 
 146   11:10   0.88   52.9    51    4.4   325     9.0   802.3    0.00 
 146   11:20   0.88   52.3    51    4.8   347     9.6   802.3    0.00 
 146   11:30   0.73   52.7    57    8.5   358    13.9   802.3    0.00 
 146   11:40   0.76   52.6    57   11.0    15    17.9   802.3    0.00 
 146   11:50   0.56   51.9    56    9.9    26    13.8   802.3    0.00 
 146   12:00   0.55   51.3    54    7.3    22    10.2   802.3    0.00 
 146   12:10   1.00   52.4    51    4.3    44     7.5   802.2    0.00 
 146   12:20   1.06   53.2    46    2.1     9     4.5   802.0    0.00 
 146   12:30   1.05   53.8    49    3.7   355    10.4   802.0    0.00 
 146   12:40   1.04   53.8    47    3.6     2     7.7   801.9    0.00 
 146   12:50   1.04   55.1    47    2.5   126     6.9   801.8    0.00 
 146   13:00   1.03   55.2    46    1.4   161     4.5   801.6    0.00 
 146   13:10   1.01   55.2    47    3.3    17     6.5   801.5    0.00 
 146   13:20   1.01   55.5    45    2.5    80     6.7   801.4    0.00 
 146   13:30   1.03   55.7    44    3.0   265     5.3   801.3    0.00 
 146   13:40   0.74   56.0    45    2.7   295     5.5   801.2    0.00 
 146   13:50   0.55   54.9    47    4.0   323     8.1   801.2    0.00 
 146   14:00   1.01   56.3    46    3.5   264     7.7   801.2    0.00 
 146   14:10   0.24   55.5    46    4.1   326     9.5   801.1    0.00 
 146   14:20   0.59   55.7    52    9.2     1    15.3   801.1    0.00 
 146   14:30   0.47   54.0    55   10.4    21    16.7   801.1    0.00 
 146   14:40   0.59   54.8    54    5.0     5    10.2   801.1    0.00 
 146   14:50   0.79   56.6    48    4.8     2     7.8   801.1    0.00 
 146   15:00   0.33   55.7    48    4.9   308     8.3   801.1    0.00 
 146   15:10   0.45   53.7    56   11.1   237    16.1   801.1    0.00 
 146   15:20   0.48   54.7    54   10.7   222    14.9   801.1    0.00 
 146   15:30   0.21   52.3    59    9.4   224    14.3   801.0    0.02 
 146   15:40   0.77   53.7    64    8.7   228    12.0   801.0    0.00 
 146   15:50   0.46   54.8    58    8.9   231    13.5   801.0    0.00 
 146   16:00   0.26   53.8    56    7.7   226    11.9   801.1    0.00 
 146   16:10   0.14   53.7    53    4.3   318     8.0   801.2    0.00 
 146   16:20   0.08   52.6    54    6.6   311     9.7   801.3    0.00 
 146   16:30   0.06   51.7    57   10.4   328    21.1   801.5    0.00 
 146   16:40   0.05   49.5    65   13.8   300    20.7   801.7    0.00 
 146   16:50   0.05   47.9    73   12.8   317    19.4   801.8    0.00 
 146   17:00   0.03   46.9    75   16.6   331    24.0   802.1    0.00 
 146   17:10   0.01   45.6    80   13.9   340    19.2   802.4    0.01 
 146   17:20   0.02   45.1    81    8.7     0    12.3   802.5    0.01 
 146   17:30   0.03   44.9    83    7.9    26    12.6   802.5    0.00 
 146   17:40   0.07   44.9    82   11.8    44    18.9   802.6    0.00 
 146   17:50   0.12   44.9    83    9.4    66    13.6   802.6    0.00 
 146   18:00   0.14   45.0    83    7.9    86    11.9   802.6    0.00 
 146   18:10   0.11   45.5    82    4.2   122     7.7   802.6    0.00 
 146   18:20   0.07   45.4    82    4.5   186     7.4   802.8    0.00 
 146   18:30   0.04   45.5    78    5.4   201     7.8   803.0    0.00 
 146   18:40   0.04   45.0    82    4.5   188     6.1   802.9    0.00 
 146   18:50   0.02   44.9    84    3.2   166     5.3   802.9    0.00 
 146   19:00   0.01   44.5    85    3.5   182     5.6   802.9    0.00 
 146   19:10   0.00   44.5    86    2.5   207     3.9   803.0    0.00 
 146   19:20   0.00   45.1    85    2.7   270     3.7   803.2    0.00 
 146   19:30   0.00   45.4    83    3.0   299     5.4   803.2    0.00 
 146   19:40   0.00   45.0    84    4.7   281     6.6   803.2    0.00 
 146   19:50   0.00   45.0    82    4.3   271     7.9   803.2    0.00 
 146   20:00   0.00   45.0    83    2.4   308     5.2   803.3    0.00 
 146   20:10   0.00   44.9    83    2.8    73     6.1   803.5    0.00 
 146   20:20   0.00   44.8    81    3.0    35     5.2   803.6    0.00 
 146   20:30   0.00   44.9    84    2.3    95     4.5   803.7    0.00 
 146   20:40   0.00   44.6    84    3.5    75     5.3   803.8    0.00 
 146   20:50   0.00   44.3    83    1.2    83     3.7   803.9    0.01 
 146   21:00   0.00   44.0    85    0.1   146     1.8   804.0    0.01 
 146   21:10   0.00   43.3    87    1.7   168     2.4   804.0    0.00 
 146   21:20   0.00   42.8    89    2.0   176     2.4   804.1    0.00 
 146   21:30   0.00   42.5    90    2.3   186     2.7   804.0    0.00 
 146   21:40   0.00   42.3    90    1.5   207     2.6   804.0    0.00 
 146   21:50   0.00   42.3    91    2.6   230     3.3   804.0    0.00 
 146   22:00   0.00   42.7    91    2.4   218     3.1   804.0    0.00 
 146   22:10   0.00   42.9    90    2.3   215     3.2   804.0    0.00 
 146   22:20   0.00   43.1    89    2.6   240     3.4   804.0    0.00 
 146   22:30   0.00   43.2    90    2.0   270     3.0   804.0    0.00 
 146   22:40   0.00   43.4    90    1.1   287     2.5   804.0    0.00 
 146   22:50   0.00   43.5    89    0.5   258     1.7   804.0    0.00 
 146   23:00   0.00   43.7    89    1.4   274     3.8   804.0    0.00 
 146   23:10   0.00   43.7    90    3.4   264     4.8   804.0    0.00 
 146   23:20   0.00   43.4    91    3.0   244     4.1   803.9    0.00 
 146   23:30   0.00   43.1    91    2.1   251     3.5   803.9    0.00 
 146   23:40   0.00   42.9    91    2.6   234     3.9   803.9    0.00 
 146   23:50   0.00   42.9    90    1.3   234     2.9   803.9    0.00 
 147    0:00   0.00   42.7    90    2.2   176     3.1   803.8    0.00 
 147    0:10   0.00   42.2    92    0.3   149     1.8   803.7    0.00 
 147    0:20   0.00   42.2    92    0.9    79     2.5   803.5    0.00 
 147    0:30   0.00   42.0    92    2.2    67     2.9   803.5    0.00 
 147    0:40   0.00   41.3    93    3.4    64     4.9   803.5    0.00 
 147    0:50   0.00   41.0    93    3.6    42     5.8   803.6    0.00 
 147    1:00   0.00   41.8    94    6.3    12    10.0   803.7    0.00 
 147    1:10   0.00   42.0    91    7.1    22     9.9   803.7    0.00 
 147    1:20   0.00   41.7    92    4.5    49     7.6   803.6    0.02 
 147    1:30   0.00   41.1    92    3.3    12     6.0   803.7    0.00 
 147    1:40   0.00   40.9    92    1.3     4     2.3   803.6    0.01 
 147    1:50   0.00   41.0    92    2.2   281     5.2   803.6    0.00 
 147    2:00   0.00   40.0    93    3.6   250     4.7   803.6    0.00 
 147    2:10   0.00   39.1    93    3.6   249     4.8   803.4    0.00 
 147    2:20   0.00   38.5    93    2.9   262     4.4   803.3    0.00 
 147    2:30   0.00   38.3    94    3.5   255     3.9   803.2    0.00 
 147    2:40   0.00   39.0    93    2.5   279     3.7   803.0    0.00 
 147    2:50   0.00   37.8    92    1.3   358     4.4   802.9    0.00 
 147    3:00   0.00   37.9    93    1.9    64     2.8   802.9    0.00 
 147    3:10   0.00   37.9    94    2.6    31     4.2   802.8    0.00 
 147    3:20   0.00   36.8    94    2.6   336     3.5   802.8    0.00 
 147    3:30   0.00   37.1    94    2.1   309     3.1   802.8    0.00 
 147    3:40   0.00   36.8    94    1.1   147     2.3   802.7    0.00 
 147    3:50   0.00   36.6    94    1.7   203     3.4   802.7    0.00 
 147    4:00   0.00   35.8    93    1.2   122     2.8   802.7    0.00 
 147    4:10   0.00   35.7    94    1.5   166     2.5   802.8    0.00 
 147    4:20   0.00   35.2    94    1.4   184     2.1   802.8    0.00 
 147    4:30   0.00   35.8    95    2.2   203     3.0   802.7    0.00 
 147    4:40   0.00   36.2    95    2.5   272     3.4   802.8    0.00 
 147    4:50   0.01   36.0    95    2.1   257     4.0   802.9    0.00 
 147    5:00   0.01   36.0    95    2.8   257     4.0   803.0    0.00 
 147    5:10   0.02   35.8    95    1.9   241     2.8   803.0    0.00 
 147    5:20   0.02   35.6    95    2.0   249     3.3   803.0    0.00 
 147    5:30   0.04   35.8    95    1.4   292     2.4   803.1    0.00 
 147    5:40   0.05   36.5    96    0.8   282     2.3   803.1    0.00 
 147    5:50   0.05   36.9    96    0.5   305     1.8   803.1    0.00 
 147    6:00   0.11   37.3    95    0.4    76     1.5   803.2    0.00 
 147    6:10   0.10   39.0    96    0.0     7     1.3   803.2    0.00 
 147    6:20   0.10   39.0    94    1.3    11     1.8   803.3    0.00 
 147    6:30   0.10   39.5    94    1.3    46     2.3   803.4    0.00 
 147    6:40   0.12   40.3    93    0.4    25     1.9   803.5    0.00 
 147    6:50   0.18   41.3    92    1.3    36     2.6   803.5    0.00 
 147    7:00   0.22   41.8    90    2.0    54     3.3   803.6    0.00 
 147    7:10   0.43   42.9    89    1.3    36     3.0   803.6    0.00 
 147    7:20   0.53   45.4    83    1.3    12     2.7   803.6    0.00 
 147    7:30   0.49   46.6    80    1.8   286     3.4   803.7    0.00 
 147    7:40   0.57   46.8    78    1.9   155     4.5   803.8    0.00 
 147    7:50   0.63   48.8    75    1.1    32     3.2   803.8    0.00 
 147    8:00   0.67   49.5    73    1.3    15     4.4   803.8    0.00 
 147    8:10   0.79   49.4    73    1.7    13     4.6   803.7    0.00 
 147    8:20   0.65   50.8    70    2.0    25     4.7   803.7    0.00 
 147    8:30   0.38   48.8    71    2.8   349     5.3   803.8    0.00 
 147    8:40   0.42   48.8    69    2.0   344     4.3   803.8    0.00 
 147    8:50   0.41   49.3    62    2.1   267     3.9   803.8    0.00 
 147    9:00   0.45   49.5    62    2.9   314     5.3   803.8    0.00 
 147    9:10   0.48   49.8    62    3.2   322     6.4   803.8    0.00 
 147    9:20   0.50   49.8    62    4.2   301     6.6   803.7    0.00 
 147    9:30   0.72   50.7    61    3.2   291     6.4   803.7    0.00 
 147    9:40   1.18   52.3    58    4.2   298     7.4   803.7    0.00 
 147    9:50   1.08   53.1    53    2.8    27     7.2   803.7    0.00 
 147   10:00   1.04   53.5    57    4.8    20     8.4   803.7    0.00 
 147   10:10   1.10   53.9    53    3.9    23     7.8   803.7    0.00 
 147   10:20   1.14   54.5    52    3.8    22     9.3   803.6    0.00 

Return to Bridgeport Valley graphs page.


Western Regional Climate Center,wrcc@dri.edu